createdAt,value
2023-12-04T00:02:00.695Z,40.60
2023-12-04T00:04:27.760Z,36.42
2023-12-04T00:06:55.281Z,37.00
2023-12-04T00:09:22.329Z,32.67
2023-12-04T00:11:49.239Z,33.80
2023-12-04T00:14:16.045Z,32.90
2023-12-04T00:16:43.016Z,32.35
2023-12-04T00:19:10.521Z,37.03
2023-12-04T00:21:37.735Z,39.40
2023-12-04T00:24:06.306Z,34.80
2023-12-04T00:26:33.029Z,31.47
2023-12-04T00:28:59.935Z,35.22
2023-12-04T00:31:26.931Z,37.13
2023-12-04T00:33:54.551Z,35.80
2023-12-04T00:36:21.545Z,34.30
2023-12-04T00:38:48.530Z,32.00
2023-12-04T00:41:16.106Z,36.97
2023-12-04T00:43:42.916Z,33.58
2023-12-04T00:46:09.862Z,35.35
2023-12-04T00:48:36.741Z,35.45
2023-12-04T00:51:03.650Z,34.03
2023-12-04T00:53:30.555Z,34.90
2023-12-04T00:55:57.378Z,37.75
2023-12-04T00:58:24.806Z,35.70
2023-12-04T01:00:52.366Z,39.60
2023-12-04T01:03:19.168Z,36.63
2023-12-04T01:05:45.932Z,38.90
2023-12-04T01:08:12.984Z,38.90
2023-12-04T01:10:40.536Z,38.85
2023-12-04T01:13:07.646Z,38.47
2023-12-04T01:15:34.702Z,39.93
2023-12-04T01:18:01.673Z,38.88
2023-12-04T01:20:28.683Z,38.25
2023-12-04T01:22:56.103Z,39.35
2023-12-04T01:25:22.912Z,41.10
2023-12-04T01:27:49.785Z,40.73
2023-12-04T01:30:16.848Z,42.05
2023-12-04T01:32:43.706Z,40.47
2023-12-04T01:35:10.592Z,41.15
2023-12-04T01:37:38.782Z,38.50
2023-12-04T01:40:06.492Z,40.33
2023-12-04T01:42:33.545Z,39.25
2023-12-04T01:45:00.498Z,38.92
2023-12-04T01:47:27.488Z,40.08
2023-12-04T01:49:54.777Z,40.50
2023-12-04T01:52:22.229Z,41.63
2023-12-04T01:54:49.401Z,36.08
2023-12-04T01:57:16.340Z,43.97
2023-12-04T01:59:43.865Z,39.78
2023-12-04T02:02:11.257Z,41.60
2023-12-04T02:04:38.102Z,42.77
2023-12-04T02:07:05.294Z,41.20
2023-12-04T02:09:32.473Z,39.08
2023-12-04T02:12:00.300Z,44.53
2023-12-04T02:14:27.618Z,37.83
2023-12-04T02:16:56.829Z,39.27
2023-12-04T02:19:24.308Z,39.10
2023-12-04T02:21:51.469Z,35.78
2023-12-04T02:24:18.390Z,40.78
2023-12-04T02:27:00.194Z,41.58
2023-12-04T02:29:42.062Z,34.23
2023-12-04T02:32:13.101Z,40.40
2023-12-04T02:34:42.610Z,40.70
2023-12-04T02:37:11.626Z,37.55
2023-12-04T02:39:38.535Z,38.85
2023-12-04T02:42:05.690Z,38.37
2023-12-04T02:44:32.516Z,37.55
2023-12-04T02:46:59.323Z,36.60
2023-12-04T02:49:27.128Z,37.05
2023-12-04T02:51:54.033Z,37.58
2023-12-04T02:54:20.845Z,32.70
2023-12-04T02:56:47.833Z,37.65
2023-12-04T02:59:14.624Z,37.78
2023-12-04T03:01:41.464Z,35.30
2023-12-04T03:04:08.518Z,39.92
2023-12-04T03:06:35.370Z,37.60
2023-12-04T03:09:04.292Z,36.40
2023-12-04T03:11:31.284Z,35.95
2023-12-04T03:14:00.900Z,37.50
2023-12-04T03:16:27.967Z,33.25
2023-12-04T03:18:54.984Z,32.23
2023-12-04T03:21:21.826Z,34.17
2023-12-04T03:23:48.789Z,32.38
2023-12-04T03:26:16.010Z,36.85
2023-12-04T03:28:42.880Z,35.50
2023-12-04T03:31:11.009Z,33.47
2023-12-04T03:33:38.089Z,36.08
2023-12-04T03:36:05.490Z,34.10
2023-12-04T03:38:32.389Z,35.08
2023-12-04T03:40:59.653Z,37.50
2023-12-04T03:43:26.509Z,35.03
2023-12-04T03:45:53.395Z,34.50
2023-12-04T03:48:20.486Z,35.95
2023-12-04T03:50:47.323Z,34.30
2023-12-04T03:53:14.174Z,34.80
2023-12-04T03:55:41.114Z,35.03
2023-12-04T03:58:07.968Z,35.70
2023-12-04T04:00:34.726Z,33.10
2023-12-04T04:03:02.112Z,34.35
2023-12-04T04:05:28.924Z,32.85
2023-12-04T04:07:55.738Z,35.77
2023-12-04T04:10:23.217Z,30.15
2023-12-04T04:12:49.969Z,33.00
2023-12-04T04:15:16.820Z,31.00
2023-12-04T04:17:43.930Z,32.83
2023-12-04T04:20:11.115Z,29.77
2023-12-04T04:22:38.251Z,30.33
2023-12-04T04:25:08.663Z,32.15
2023-12-04T04:27:35.797Z,26.63
2023-12-04T04:30:03.966Z,30.33
2023-12-04T04:32:31.064Z,33.80
2023-12-04T04:34:58.749Z,28.88
2023-12-04T04:37:25.697Z,28.13
2023-12-04T04:39:52.714Z,31.63
2023-12-04T04:42:19.552Z,30.90
2023-12-04T04:44:46.382Z,28.00
2023-12-04T04:47:13.294Z,29.00
2023-12-04T04:49:40.146Z,27.67
2023-12-04T04:52:07.056Z,26.35
2023-12-04T04:54:34.210Z,31.63
2023-12-04T04:57:01.090Z,29.70
2023-12-04T04:59:28.860Z,26.77
2023-12-04T05:01:55.862Z,24.30
2023-12-04T05:04:22.835Z,26.55
2023-12-04T05:06:49.729Z,27.83
2023-12-04T05:09:17.061Z,25.17
2023-12-04T05:11:43.824Z,25.02
2023-12-04T05:14:10.530Z,30.23
2023-12-04T05:16:37.454Z,32.13
2023-12-04T05:19:04.302Z,25.50
2023-12-04T05:21:31.121Z,26.53
2023-12-04T05:23:58.981Z,25.25
2023-12-04T05:26:25.687Z,24.92
2023-12-04T05:28:52.412Z,26.60
2023-12-04T05:31:19.412Z,27.83
2023-12-04T05:33:46.414Z,26.07
2023-12-04T05:36:13.280Z,25.98
2023-12-04T05:38:40.326Z,25.48
2023-12-04T05:41:07.119Z,26.67
2023-12-04T05:43:33.898Z,24.05
2023-12-04T05:46:00.804Z,28.43
2023-12-04T05:48:27.845Z,24.67
2023-12-04T05:50:54.599Z,25.02
2023-12-04T05:53:21.555Z,27.92
2023-12-04T05:55:48.348Z,26.60
2023-12-04T05:58:15.205Z,24.53
2023-12-04T06:00:42.190Z,23.70
2023-12-04T06:03:08.960Z,25.85
2023-12-04T06:05:35.808Z,24.58
2023-12-04T06:08:02.736Z,24.38
2023-12-04T06:10:29.565Z,22.60
2023-12-04T06:12:56.461Z,25.05
2023-12-04T06:15:23.407Z,23.67
2023-12-04T06:17:50.288Z,24.58
2023-12-04T06:20:17.039Z,24.35
2023-12-04T06:22:44.210Z,21.87
2023-12-04T06:25:11.744Z,22.45
2023-12-04T06:27:38.949Z,22.67
2023-12-04T06:30:07.214Z,24.15
2023-12-04T06:32:34.400Z,21.83
2023-12-04T06:35:01.493Z,23.70
2023-12-04T06:37:29.545Z,23.75
2023-12-04T06:40:01.215Z,23.15
2023-12-04T06:42:31.280Z,22.40
2023-12-04T06:44:58.511Z,23.75
2023-12-04T06:47:25.778Z,20.43
2023-12-04T06:49:52.804Z,23.10
2023-12-04T06:52:19.633Z,24.38
2023-12-04T06:54:46.461Z,22.40
2023-12-04T06:57:13.495Z,21.33
2023-12-04T06:59:40.306Z,22.23
2023-12-04T07:02:07.172Z,21.63
2023-12-04T07:04:34.284Z,20.95
2023-12-04T07:07:01.350Z,20.77
2023-12-04T07:09:28.772Z,19.13
2023-12-04T07:11:55.816Z,20.27
2023-12-04T07:14:22.576Z,19.67
2023-12-04T07:16:49.264Z,22.40
2023-12-04T07:19:16.419Z,21.92
2023-12-04T07:21:43.722Z,20.55
2023-12-04T07:24:10.552Z,21.10
2023-12-04T07:26:37.787Z,24.55
2023-12-04T07:29:04.839Z,22.67
2023-12-04T07:31:31.905Z,20.70
2023-12-04T07:33:59.531Z,19.75
2023-12-04T07:36:26.371Z,21.77
2023-12-04T07:38:53.121Z,23.05
2023-12-04T07:41:20.005Z,20.00
2023-12-04T07:43:47.076Z,22.35
2023-12-04T07:46:13.973Z,19.70
2023-12-04T07:48:41.300Z,22.70
2023-12-04T07:51:08.552Z,23.48
2023-12-04T07:53:35.368Z,21.35
2023-12-04T07:56:03.154Z,20.10
2023-12-04T07:58:31.320Z,20.25
2023-12-04T08:00:59.464Z,19.43
2023-12-04T08:03:26.453Z,20.65
2023-12-04T08:05:53.491Z,21.10
2023-12-04T08:08:21.052Z,20.73
2023-12-04T08:10:48.587Z,19.33
2023-12-04T08:13:15.602Z,19.37
2023-12-04T08:15:42.589Z,16.85
2023-12-04T08:18:09.821Z,19.13
2023-12-04T08:20:40.370Z,18.67
2023-12-04T08:23:08.836Z,19.80
2023-12-04T08:25:35.992Z,18.87
2023-12-04T08:28:02.832Z,18.50
2023-12-04T08:30:31.821Z,20.00
2023-12-04T08:32:58.768Z,17.90
2023-12-04T08:35:26.543Z,21.10
2023-12-04T08:37:53.494Z,18.97
2023-12-04T08:40:20.634Z,18.80
2023-12-04T08:42:47.584Z,17.50
2023-12-04T08:45:14.931Z,18.20
2023-12-04T08:47:43.134Z,17.77
2023-12-04T08:50:10.074Z,17.53
2023-12-04T08:52:36.835Z,18.85
2023-12-04T08:55:04.980Z,18.15
2023-12-04T08:57:31.730Z,18.05
2023-12-04T08:59:58.561Z,16.67
2023-12-04T09:02:25.634Z,19.67
2023-12-04T09:04:52.655Z,23.48
2023-12-04T09:09:49.632Z,17.45
2023-12-04T09:12:16.444Z,17.20
2023-12-04T09:14:43.197Z,16.00
2023-12-04T09:17:10.935Z,18.02
2023-12-04T09:19:37.812Z,17.92
2023-12-04T09:22:12.562Z,16.98
2023-12-04T09:24:44.557Z,19.50
2023-12-04T09:27:11.409Z,16.87
2023-12-04T09:29:38.337Z,17.73
2023-12-04T09:32:05.606Z,18.77
2023-12-04T09:34:32.340Z,20.13
2023-12-04T09:37:06.116Z,17.10
2023-12-04T09:39:37.590Z,16.63
2023-12-04T09:42:04.957Z,16.98
2023-12-04T09:44:32.597Z,17.10
2023-12-04T09:47:00.745Z,18.42
2023-12-04T09:49:30.895Z,18.80
2023-12-04T09:51:59.168Z,17.97
2023-12-04T09:54:26.422Z,17.70
2023-12-04T09:56:53.467Z,17.33
2023-12-04T09:59:24.630Z,15.90
2023-12-04T10:01:52.672Z,16.00
2023-12-04T10:04:21.173Z,17.53
2023-12-04T10:06:52.722Z,17.15
2023-12-04T10:09:20.604Z,15.02
2023-12-04T10:11:47.412Z,14.82
2023-12-04T10:14:21.579Z,14.73
2023-12-04T10:16:49.901Z,15.83
2023-12-04T10:19:19.713Z,16.77
2023-12-04T10:21:47.799Z,16.75
2023-12-04T10:24:27.964Z,15.80
2023-12-04T10:26:54.761Z,15.45
2023-12-04T10:29:21.827Z,17.00
2023-12-04T10:31:48.795Z,14.93
2023-12-04T10:34:15.627Z,16.02
2023-12-04T10:36:42.727Z,17.92
2023-12-04T10:39:09.599Z,16.92
2023-12-04T10:41:36.336Z,16.53
2023-12-04T10:44:10.065Z,16.02
2023-12-04T10:46:39.689Z,14.18
2023-12-04T10:49:07.325Z,19.25
2023-12-04T10:51:34.789Z,15.52
2023-12-04T10:54:01.931Z,16.47
2023-12-04T10:56:36.573Z,27.77
2023-12-04T10:59:04.221Z,15.23
2023-12-04T11:01:32.047Z,14.60
2023-12-04T11:04:03.958Z,16.52
2023-12-04T11:06:32.332Z,17.07
2023-12-04T11:09:00.854Z,17.52
2023-12-04T11:11:36.948Z,16.08
2023-12-04T11:14:06.596Z,16.65
2023-12-04T11:16:49.847Z,19.70
2023-12-04T11:19:26.630Z,16.40
2023-12-04T11:21:54.602Z,17.23
2023-12-04T11:24:22.563Z,18.35
2023-12-04T11:26:50.496Z,17.35
2023-12-04T11:29:18.263Z,15.63
2023-12-04T11:31:45.270Z,16.30
2023-12-04T11:34:13.427Z,16.50
2023-12-04T11:36:40.883Z,17.00
2023-12-04T11:39:11.839Z,17.15
2023-12-04T11:41:38.798Z,19.60
2023-12-04T11:44:13.658Z,16.20
2023-12-04T11:46:40.736Z,18.20
2023-12-04T11:49:26.140Z,17.80
2023-12-04T11:51:53.348Z,19.95
2023-12-04T11:54:22.436Z,17.77
2023-12-04T11:57:20.191Z,17.53
2023-12-04T11:59:47.154Z,18.77
2023-12-04T12:02:16.339Z,18.77
2023-12-04T12:04:43.459Z,18.23
2023-12-04T12:07:10.809Z,17.98
2023-12-04T12:09:37.747Z,19.00
2023-12-04T12:12:05.240Z,17.83
2023-12-04T12:14:33.254Z,17.90
2023-12-04T12:17:01.256Z,23.00
2023-12-04T12:19:28.549Z,18.80
2023-12-04T12:21:55.822Z,18.63
2023-12-04T12:24:25.185Z,18.10
2023-12-04T12:26:51.985Z,21.95
2023-12-04T12:29:19.418Z,17.67
2023-12-04T12:31:46.370Z,22.50
2023-12-04T12:34:13.405Z,20.03
2023-12-04T12:36:41.413Z,19.00
2023-12-04T12:39:08.444Z,20.17
2023-12-04T12:41:35.488Z,18.70
2023-12-04T12:44:02.932Z,18.10
2023-12-04T12:46:29.865Z,19.30
2023-12-04T12:48:57.312Z,17.08
2023-12-04T12:51:24.923Z,18.38
2023-12-04T12:53:52.783Z,18.98
2023-12-04T12:56:20.454Z,18.73
2023-12-04T12:58:47.317Z,18.63
2023-12-04T13:01:14.467Z,19.52
2023-12-04T13:03:41.625Z,20.88
2023-12-04T13:06:09.197Z,20.05
2023-12-04T13:08:36.294Z,18.50
2023-12-04T13:11:04.384Z,21.00
2023-12-04T13:13:31.229Z,19.40
2023-12-04T13:15:58.647Z,19.77
2023-12-04T13:18:25.529Z,19.13
2023-12-04T13:20:52.291Z,19.35
2023-12-04T13:23:19.213Z,17.23
2023-12-04T13:25:46.047Z,19.48
2023-12-04T13:28:23.022Z,19.65
2023-12-04T13:30:54.834Z,18.45
2023-12-04T13:33:21.881Z,19.35
2023-12-04T13:35:48.681Z,21.27
2023-12-04T13:38:20.851Z,19.52
2023-12-04T13:40:50.573Z,18.20
2023-12-04T13:43:17.723Z,19.92
2023-12-04T13:45:44.654Z,16.85
2023-12-04T13:48:12.979Z,19.43
2023-12-04T13:50:41.336Z,19.00
2023-12-04T13:53:08.605Z,22.02
2023-12-04T13:55:35.375Z,20.48
2023-12-04T13:58:02.896Z,18.17
2023-12-04T14:00:29.818Z,17.80
2023-12-04T14:02:56.816Z,21.40
2023-12-04T14:05:24.783Z,21.83
2023-12-04T14:07:51.959Z,19.30
2023-12-04T14:10:18.959Z,18.63
2023-12-04T14:12:46.069Z,20.07
2023-12-04T14:15:12.897Z,19.17
2023-12-04T14:17:40.644Z,21.45
2023-12-04T14:20:08.616Z,21.02
2023-12-04T14:22:35.470Z,20.00
2023-12-04T14:25:03.103Z,19.37
2023-12-04T14:27:30.084Z,19.35
2023-12-04T14:29:58.430Z,22.05
2023-12-04T14:32:31.773Z,23.88
2023-12-04T14:35:01.752Z,17.80
2023-12-04T14:37:28.631Z,21.43
2023-12-04T14:39:55.436Z,19.42
2023-12-04T14:42:22.728Z,22.65
2023-12-04T14:44:51.297Z,25.30
2023-12-04T14:47:18.134Z,24.95
2023-12-04T14:49:45.108Z,22.70
2023-12-04T14:52:11.877Z,19.13
2023-12-04T14:54:38.753Z,22.88
2023-12-04T14:57:06.539Z,20.60
2023-12-04T14:59:33.364Z,21.83
2023-12-04T15:02:00.676Z,23.87
2023-12-04T15:04:27.707Z,21.85
2023-12-04T15:06:54.553Z,20.85
2023-12-04T15:09:21.506Z,20.13
2023-12-04T15:11:48.460Z,25.17
2023-12-04T15:14:15.243Z,21.20
2023-12-04T15:16:43.539Z,22.92
2023-12-04T15:19:11.125Z,19.42
2023-12-04T15:21:38.552Z,24.25
2023-12-04T15:24:05.714Z,26.80
2023-12-04T15:26:32.891Z,22.83
2023-12-04T15:29:00.398Z,21.58
2023-12-04T15:31:27.235Z,22.13
2023-12-04T15:33:54.389Z,20.77
2023-12-04T15:36:21.374Z,22.15
2023-12-04T15:38:48.215Z,22.37
2023-12-04T15:41:15.413Z,22.00
2023-12-04T15:43:42.534Z,22.85
2023-12-04T15:46:09.370Z,23.00
2023-12-04T15:48:36.589Z,27.70
2023-12-04T15:51:04.233Z,23.07
2023-12-04T15:53:31.190Z,23.00
2023-12-04T15:55:58.158Z,22.00
2023-12-04T15:58:25.000Z,21.10
2023-12-04T16:00:51.833Z,22.77
2023-12-04T16:03:19.057Z,22.20
2023-12-04T16:05:46.077Z,20.83
2023-12-04T16:08:12.960Z,23.92
2023-12-04T16:10:39.920Z,24.88
2023-12-04T16:13:06.758Z,24.02
2023-12-04T16:15:34.299Z,23.20
2023-12-04T16:18:01.365Z,25.48
2023-12-04T16:20:28.288Z,25.40
2023-12-04T16:22:55.170Z,23.85
2023-12-04T16:25:23.253Z,21.95
2023-12-04T16:27:50.140Z,24.23
2023-12-04T16:30:17.230Z,27.95
2023-12-04T16:32:44.306Z,26.85
2023-12-04T16:35:11.204Z,24.67
2023-12-04T16:37:38.018Z,28.63
2023-12-04T16:40:06.364Z,27.80
2023-12-04T16:42:33.661Z,28.02
2023-12-04T16:45:00.597Z,29.50
2023-12-04T16:47:27.778Z,26.75
2023-12-04T16:49:54.573Z,28.83
2023-12-04T16:52:21.509Z,31.27
2023-12-04T16:54:48.525Z,29.63
2023-12-04T16:57:15.371Z,31.92
2023-12-04T16:59:42.124Z,31.40
2023-12-04T17:02:09.041Z,31.73
2023-12-04T17:04:36.040Z,32.73
2023-12-04T17:07:04.169Z,33.30
2023-12-04T17:09:31.163Z,32.97
2023-12-04T17:11:57.955Z,32.50
2023-12-04T17:14:24.841Z,36.80
2023-12-04T17:16:51.905Z,39.33
2023-12-04T17:19:18.737Z,30.55
2023-12-04T17:21:45.635Z,40.35
2023-12-04T17:24:12.617Z,39.28
2023-12-04T17:26:39.418Z,31.65
2023-12-04T17:29:06.239Z,33.13
2023-12-04T17:31:33.175Z,34.38
2023-12-04T17:34:00.480Z,37.13
2023-12-04T17:36:28.440Z,34.50
2023-12-04T17:38:55.383Z,37.17
2023-12-04T17:41:22.240Z,39.43
2023-12-04T17:43:49.067Z,42.90
2023-12-04T17:46:16.003Z,35.53
2023-12-04T17:48:42.905Z,39.80
2023-12-04T17:51:15.836Z,41.33
2023-12-04T17:53:43.180Z,37.17
2023-12-04T17:56:10.770Z,37.50
2023-12-04T17:58:37.492Z,39.92
2023-12-04T18:01:05.081Z,37.45
2023-12-04T18:03:32.080Z,40.60
2023-12-04T18:05:59.103Z,35.67
2023-12-04T18:08:26.045Z,34.08
2023-12-04T18:10:52.856Z,36.15
2023-12-04T18:13:19.641Z,34.97
2023-12-04T18:15:46.850Z,39.20
2023-12-04T18:18:13.952Z,36.73
2023-12-04T18:20:40.910Z,45.40
2023-12-04T18:23:08.089Z,48.90
2023-12-04T18:25:38.054Z,41.97
2023-12-04T18:28:05.282Z,66.40
2023-12-04T18:30:33.038Z,47.83
2023-12-04T18:32:59.983Z,50.80
2023-12-04T18:35:27.641Z,46.50
2023-12-04T18:38:12.020Z,40.05
2023-12-04T18:40:38.976Z,46.40
2023-12-04T18:43:06.997Z,43.70
2023-12-04T18:45:35.635Z,44.05
2023-12-04T18:48:08.750Z,44.13
2023-12-04T18:50:38.852Z,40.13
2023-12-04T18:53:06.845Z,45.83
2023-12-04T18:55:34.599Z,48.80
2023-12-04T18:58:01.544Z,49.45
2023-12-04T19:00:28.374Z,45.53
2023-12-04T19:02:57.672Z,58.88
2023-12-04T19:05:24.955Z,56.63
2023-12-04T19:07:51.809Z,49.77
2023-12-04T19:10:18.521Z,48.10
2023-12-04T19:12:45.552Z,57.40
2023-12-04T19:15:12.357Z,48.20
2023-12-04T19:17:39.139Z,44.00
2023-12-04T19:20:07.310Z,41.70
2023-12-04T19:22:34.117Z,54.70
2023-12-04T19:25:01.242Z,56.92
2023-12-04T19:27:28.277Z,59.13
2023-12-04T19:29:55.490Z,67.65
2023-12-04T19:32:23.040Z,58.53
2023-12-04T19:34:50.211Z,66.95
2023-12-04T19:37:17.138Z,65.95
2023-12-04T19:39:46.826Z,54.50
2023-12-04T19:42:13.777Z,57.40
2023-12-04T19:44:47.024Z,51.87
2023-12-04T19:47:14.191Z,60.72
2023-12-04T19:49:44.684Z,52.28
2023-12-04T19:52:11.837Z,58.67
2023-12-04T19:54:42.533Z,70.90
2023-12-04T19:57:09.774Z,59.20
2023-12-04T19:59:36.581Z,57.70
2023-12-04T20:02:06.510Z,66.47
2023-12-04T20:04:33.588Z,56.30
2023-12-04T20:07:01.607Z,59.65
2023-12-04T20:09:28.645Z,62.63
2023-12-04T20:11:55.869Z,68.97
2023-12-04T20:14:22.682Z,64.45
2023-12-04T20:16:50.021Z,63.97
2023-12-04T20:19:16.839Z,63.97
2023-12-04T20:21:43.867Z,61.30
2023-12-04T20:24:10.954Z,61.10
2023-12-04T20:26:37.809Z,58.42
2023-12-04T20:29:04.662Z,63.70
2023-12-04T20:31:32.140Z,57.75
2023-12-04T20:33:59.022Z,58.17
2023-12-04T20:36:25.888Z,65.07
2023-12-04T20:38:52.831Z,65.13
2023-12-04T20:41:22.637Z,76.38
2023-12-04T20:43:49.445Z,67.32
2023-12-04T20:46:16.362Z,65.10
2023-12-04T20:48:43.271Z,63.65
2023-12-04T20:51:10.309Z,59.38
2023-12-04T20:53:37.321Z,66.15
2023-12-04T20:56:04.668Z,57.30
2023-12-04T20:58:31.613Z,62.33
2023-12-04T21:00:58.736Z,60.05
2023-12-04T21:03:25.810Z,63.50
2023-12-04T21:05:52.693Z,64.70
2023-12-04T21:08:19.600Z,59.55
2023-12-04T21:10:46.472Z,60.03
2023-12-04T21:13:13.362Z,59.83
2023-12-04T21:15:40.525Z,63.60
2023-12-04T21:18:07.710Z,69.15
2023-12-04T21:20:35.606Z,68.65
2023-12-04T21:23:02.681Z,63.63
2023-12-04T21:25:29.447Z,60.83
2023-12-04T21:27:56.377Z,60.35
2023-12-04T21:30:23.506Z,59.67
2023-12-04T21:32:50.431Z,57.40
2023-12-04T21:35:17.222Z,64.93
2023-12-04T21:37:44.569Z,81.47
2023-12-04T21:40:12.225Z,70.45
2023-12-04T21:42:39.065Z,58.65
2023-12-04T21:45:07.393Z,71.43
2023-12-04T21:47:36.678Z,60.50
2023-12-04T21:50:04.219Z,60.75
2023-12-04T21:52:31.361Z,58.25
2023-12-04T21:54:58.291Z,62.25
2023-12-04T21:57:25.056Z,60.95
2023-12-04T21:59:52.395Z,60.47
2023-12-04T22:02:19.169Z,58.72
2023-12-04T22:04:46.108Z,62.72
2023-12-04T22:07:13.272Z,57.15
2023-12-04T22:09:40.198Z,57.58
2023-12-04T22:12:07.785Z,59.80
2023-12-04T22:14:34.708Z,66.10
2023-12-04T22:17:01.571Z,59.92
2023-12-04T22:19:28.422Z,61.38
2023-12-04T22:21:55.455Z,62.95
2023-12-04T22:24:22.332Z,66.50
2023-12-04T22:26:49.096Z,61.80
2023-12-04T22:29:16.016Z,68.28
2023-12-04T22:31:42.788Z,64.07
2023-12-04T22:34:09.819Z,59.88
2023-12-04T22:36:37.046Z,59.73
2023-12-04T22:39:03.984Z,63.05
2023-12-04T22:41:30.776Z,67.70
2023-12-04T22:43:57.712Z,64.15
2023-12-04T22:46:24.505Z,65.25
2023-12-04T22:48:51.440Z,67.13
2023-12-04T22:51:18.480Z,68.82
2023-12-04T22:53:45.346Z,66.72
2023-12-04T22:56:12.626Z,66.85
2023-12-04T22:58:40.136Z,66.03
2023-12-04T23:01:08.131Z,62.97
2023-12-04T23:03:35.220Z,68.10
2023-12-04T23:06:02.143Z,64.88
2023-12-04T23:08:28.950Z,65.97
2023-12-04T23:10:56.782Z,69.32
2023-12-04T23:13:25.015Z,66.97
2023-12-04T23:15:51.941Z,62.20
2023-12-04T23:18:18.986Z,64.25
2023-12-04T23:20:45.744Z,67.00
2023-12-04T23:23:12.589Z,61.45
2023-12-04T23:25:39.510Z,67.53
2023-12-04T23:28:06.938Z,64.68
2023-12-04T23:30:34.143Z,66.45
2023-12-04T23:33:01.292Z,63.70
2023-12-04T23:35:28.110Z,63.30
2023-12-04T23:37:54.854Z,63.73
2023-12-04T23:40:22.410Z,67.80
2023-12-04T23:42:49.203Z,64.18
2023-12-04T23:45:16.071Z,61.05
2023-12-04T23:47:43.244Z,59.17
2023-12-04T23:50:10.442Z,59.97
2023-12-04T23:52:38.032Z,65.00
2023-12-04T23:55:05.475Z,62.65
2023-12-04T23:57:32.266Z,61.78
2023-12-04T23:59:59.083Z,58.88
